createdAt,value
2022-10-06T00:00:22.215Z,91.90
2022-10-06T00:01:24.018Z,91.30
2022-10-06T00:02:25.827Z,94.70
2022-10-06T00:03:28.037Z,92.50
2022-10-06T00:04:29.866Z,96.60
2022-10-06T00:05:31.683Z,92.20
2022-10-06T00:06:33.971Z,91.30
2022-10-06T00:07:36.567Z,93.40
2022-10-06T00:08:40.169Z,94.80
2022-10-06T00:09:42.526Z,92.40
2022-10-06T00:10:44.516Z,91.80
2022-10-06T00:11:46.090Z,91.20
2022-10-06T00:12:50.534Z,90.30
2022-10-06T00:13:52.208Z,90.10
2022-10-06T00:14:53.857Z,88.80
2022-10-06T00:15:55.652Z,84.90
2022-10-06T00:16:57.332Z,83.80
2022-10-06T00:18:00.762Z,88.50
2022-10-06T00:19:02.370Z,92.50
2022-10-06T00:20:04.722Z,91.40
2022-10-06T00:21:06.478Z,89.90
2022-10-06T00:22:08.070Z,85.90
2022-10-06T00:23:10.114Z,88.00
2022-10-06T00:24:11.963Z,90.50
2022-10-06T00:25:16.401Z,90.10
2022-10-06T00:26:17.996Z,86.70
2022-10-06T00:27:20.233Z,90.00
2022-10-06T00:28:22.010Z,90.40
2022-10-06T00:29:23.702Z,92.60
2022-10-06T00:30:27.501Z,80.60
2022-10-06T00:31:29.611Z,86.00
2022-10-06T00:32:31.440Z,82.30
2022-10-06T00:33:33.032Z,87.30
2022-10-06T00:34:36.472Z,88.00
2022-10-06T00:35:38.127Z,90.80
2022-10-06T00:36:40.204Z,87.10
2022-10-06T00:37:41.793Z,91.10
2022-10-06T00:38:43.408Z,90.30
2022-10-06T00:39:44.999Z,91.30
2022-10-06T00:40:49.546Z,95.90
2022-10-06T00:41:51.120Z,94.40
2022-10-06T00:42:54.851Z,95.60
2022-10-06T00:43:58.803Z,97.00
2022-10-06T00:45:04.074Z,99.90
2022-10-06T00:46:08.715Z,96.10
2022-10-06T00:47:10.504Z,95.20
2022-10-06T00:48:21.103Z,93.60
2022-10-06T00:49:28.208Z,98.40
2022-10-06T00:50:30.912Z,91.30
2022-10-06T00:51:34.006Z,92.90
2022-10-06T00:52:35.909Z,95.50
2022-10-06T00:53:37.577Z,96.50
2022-10-06T00:54:39.994Z,94.80
2022-10-06T00:55:41.621Z,94.00
2022-10-06T00:56:44.030Z,93.40
2022-10-06T00:57:46.762Z,92.20
2022-10-06T00:58:50.261Z,90.50
2022-10-06T00:59:52.541Z,92.80
2022-10-06T01:00:55.154Z,94.30
2022-10-06T01:02:09.250Z,95.50
2022-10-06T01:03:35.139Z,92.40
2022-10-06T01:04:41.132Z,91.50
2022-10-06T01:05:46.731Z,97.20
2022-10-06T01:06:52.519Z,98.50
2022-10-06T01:07:54.493Z,99.90
2022-10-06T01:08:56.188Z,99.90
2022-10-06T01:09:58.157Z,99.90
2022-10-06T01:11:00.229Z,99.90
2022-10-06T01:12:05.220Z,99.90
2022-10-06T01:13:07.546Z,94.60
2022-10-06T01:14:10.222Z,99.90
2022-10-06T01:15:12.234Z,86.10
2022-10-06T01:16:27.031Z,99.90
2022-10-06T01:17:37.525Z,94.50
2022-10-06T01:18:40.386Z,99.90
2022-10-06T01:19:54.439Z,99.90
2022-10-06T01:21:11.873Z,99.90
2022-10-06T01:22:16.142Z,99.90
2022-10-06T01:23:18.375Z,99.90
2022-10-06T01:24:20.281Z,99.90
2022-10-06T01:25:22.898Z,99.90
2022-10-06T01:26:26.392Z,99.90
2022-10-06T01:27:30.660Z,99.90
2022-10-06T01:28:33.148Z,99.90
2022-10-06T01:29:36.036Z,99.90
2022-10-06T01:30:53.164Z,99.90
2022-10-06T01:31:55.306Z,99.90
2022-10-06T01:32:57.198Z,99.90
2022-10-06T01:33:58.879Z,99.90
2022-10-06T01:35:00.556Z,99.90
2022-10-06T01:36:02.143Z,99.90
2022-10-06T01:37:03.803Z,99.90
2022-10-06T01:38:05.460Z,99.90
2022-10-06T01:39:07.256Z,99.90
2022-10-06T01:40:09.563Z,99.90
2022-10-06T01:41:11.219Z,99.90
2022-10-06T01:42:12.904Z,99.90
2022-10-06T01:43:14.503Z,99.90
2022-10-06T01:44:16.112Z,99.90
2022-10-06T01:45:18.049Z,99.90
2022-10-06T01:46:19.725Z,99.90
2022-10-06T01:47:21.358Z,99.90
2022-10-06T01:48:23.729Z,99.90
2022-10-06T01:49:25.335Z,99.90
2022-10-06T01:50:27.127Z,99.90
2022-10-06T01:51:28.731Z,99.90
2022-10-06T01:52:30.324Z,99.90
2022-10-06T01:53:32.291Z,99.90
2022-10-06T01:54:33.865Z,99.90
2022-10-06T01:55:36.139Z,99.90
2022-10-06T01:56:37.718Z,99.90
2022-10-06T01:57:43.005Z,99.90
2022-10-06T01:58:44.556Z,99.90
2022-10-06T01:59:46.210Z,99.90
2022-10-06T02:00:47.951Z,99.90
2022-10-06T02:01:49.669Z,99.90
2022-10-06T02:02:51.307Z,99.90
2022-10-06T02:03:52.886Z,99.90
2022-10-06T02:04:54.476Z,99.90
2022-10-06T02:05:57.177Z,99.90
2022-10-06T02:06:58.975Z,99.90
2022-10-06T02:08:01.991Z,99.90
2022-10-06T02:09:03.916Z,99.90
2022-10-06T02:10:06.810Z,99.90
2022-10-06T02:11:09.895Z,99.90
2022-10-06T02:12:11.502Z,99.90
2022-10-06T02:13:13.184Z,99.90
2022-10-06T02:14:14.929Z,99.90
2022-10-06T02:15:16.650Z,99.90
2022-10-06T02:16:18.532Z,99.90
2022-10-06T02:17:20.242Z,99.90
2022-10-06T02:18:21.857Z,99.90
2022-10-06T02:19:23.445Z,99.90
2022-10-06T02:20:25.826Z,99.90
2022-10-06T02:21:27.477Z,99.90
2022-10-06T02:22:29.032Z,99.90
2022-10-06T02:23:30.976Z,99.90
2022-10-06T02:24:32.586Z,99.90
2022-10-06T02:25:34.179Z,99.90
2022-10-06T02:26:35.957Z,99.90
2022-10-06T02:27:38.525Z,99.90
2022-10-06T02:28:40.180Z,99.90
2022-10-06T02:29:41.765Z,99.90
2022-10-06T02:30:44.136Z,99.90
2022-10-06T02:31:46.040Z,99.90
2022-10-06T02:32:47.687Z,99.90
2022-10-06T02:33:49.336Z,99.90
2022-10-06T02:34:50.928Z,99.90
2022-10-06T02:35:58.819Z,99.90
2022-10-06T02:37:00.443Z,99.90
2022-10-06T02:38:02.023Z,99.90
2022-10-06T02:39:04.232Z,99.90
2022-10-06T02:40:06.462Z,99.90
2022-10-06T02:41:08.743Z,99.90
2022-10-06T02:42:11.180Z,99.90
2022-10-06T02:43:12.782Z,99.90
2022-10-06T02:44:14.857Z,99.90
2022-10-06T02:45:16.518Z,99.90
2022-10-06T02:46:18.553Z,99.90
2022-10-06T02:47:22.244Z,99.90
2022-10-06T02:48:25.176Z,99.90
2022-10-06T02:49:27.015Z,99.90
2022-10-06T02:50:28.623Z,99.90
2022-10-06T02:51:31.405Z,99.90
2022-10-06T02:52:37.506Z,99.90
2022-10-06T02:53:39.900Z,99.90
2022-10-06T02:54:42.215Z,99.90
2022-10-06T02:55:43.802Z,99.90
2022-10-06T02:56:46.027Z,99.90
2022-10-06T02:57:47.628Z,99.90
2022-10-06T02:58:50.586Z,99.90
2022-10-06T02:59:52.185Z,99.90
2022-10-06T03:00:53.746Z,99.90
2022-10-06T03:01:55.523Z,99.90
2022-10-06T03:02:59.357Z,99.90
2022-10-06T03:04:00.976Z,99.90
2022-10-06T03:05:02.733Z,99.90
2022-10-06T03:06:22.337Z,99.90
2022-10-06T03:07:24.087Z,99.90
2022-10-06T03:08:25.983Z,99.90
2022-10-06T03:09:27.774Z,99.90
2022-10-06T03:10:29.342Z,99.90
2022-10-06T03:11:33.676Z,99.90
2022-10-06T03:12:35.303Z,99.90
2022-10-06T03:13:36.903Z,99.90
2022-10-06T03:14:38.638Z,99.90
2022-10-06T03:15:40.239Z,99.90
2022-10-06T03:16:43.441Z,99.90
2022-10-06T03:17:49.920Z,99.90
2022-10-06T03:18:54.046Z,99.90
2022-10-06T03:19:58.822Z,99.90
2022-10-06T03:21:01.433Z,99.90
2022-10-06T03:22:04.175Z,99.90
2022-10-06T03:23:07.411Z,99.90
2022-10-06T03:24:12.162Z,99.90
2022-10-06T03:25:13.865Z,99.90
2022-10-06T03:26:17.709Z,99.90
2022-10-06T03:27:19.284Z,99.90
2022-10-06T03:28:20.928Z,99.90
2022-10-06T03:29:22.752Z,99.90
2022-10-06T03:30:24.310Z,99.90
2022-10-06T03:31:26.629Z,99.90
2022-10-06T03:32:28.347Z,99.90
2022-10-06T03:33:30.526Z,99.90
2022-10-06T03:34:32.161Z,99.90
2022-10-06T03:35:33.812Z,99.90
2022-10-06T03:36:36.189Z,99.90
2022-10-06T03:37:37.809Z,99.90
2022-10-06T03:38:39.736Z,99.90
2022-10-06T03:39:41.795Z,99.90
2022-10-06T03:40:43.597Z,99.90
2022-10-06T03:41:45.190Z,99.90
2022-10-06T03:42:46.902Z,99.90
2022-10-06T03:43:50.098Z,99.90
2022-10-06T03:44:51.683Z,99.90
2022-10-06T03:46:03.088Z,99.90
2022-10-06T03:47:04.720Z,99.90
2022-10-06T03:48:07.077Z,99.90
2022-10-06T03:49:08.740Z,99.90
2022-10-06T03:50:10.379Z,99.90
2022-10-06T03:51:14.855Z,99.90
2022-10-06T03:52:16.603Z,99.90
2022-10-06T03:53:18.332Z,99.90
2022-10-06T03:54:20.113Z,99.90
2022-10-06T03:55:22.010Z,99.90
2022-10-06T03:56:26.778Z,99.90
2022-10-06T03:57:28.363Z,99.90
2022-10-06T03:58:31.129Z,99.90
2022-10-06T03:59:34.290Z,99.90
2022-10-06T04:00:36.035Z,99.90
2022-10-06T04:01:40.501Z,99.90
2022-10-06T04:02:42.288Z,99.90
2022-10-06T04:03:44.565Z,99.90
2022-10-06T04:04:46.190Z,99.90
2022-10-06T04:05:58.874Z,99.90
2022-10-06T04:07:00.530Z,99.90
2022-10-06T04:08:02.238Z,99.90
2022-10-06T04:09:05.735Z,99.90
2022-10-06T04:10:08.325Z,99.90
2022-10-06T04:11:13.197Z,99.90
2022-10-06T04:12:14.848Z,99.90
2022-10-06T04:13:18.116Z,99.90
2022-10-06T04:14:19.747Z,99.90
2022-10-06T04:15:21.364Z,99.90
2022-10-06T04:16:25.958Z,99.90
2022-10-06T04:17:27.850Z,99.90
2022-10-06T04:18:29.709Z,99.90
2022-10-06T04:19:31.462Z,99.90
2022-10-06T04:20:33.150Z,99.90
2022-10-06T04:21:39.105Z,99.90
2022-10-06T04:22:40.867Z,99.90
2022-10-06T04:23:42.746Z,99.90
2022-10-06T04:24:44.339Z,99.90
2022-10-06T04:25:45.921Z,99.90
2022-10-06T04:26:50.759Z,99.90
2022-10-06T04:27:53.328Z,99.90
2022-10-06T04:28:54.917Z,99.90
2022-10-06T04:29:56.491Z,99.90
2022-10-06T04:31:00.061Z,99.90
2022-10-06T04:32:17.366Z,99.90
2022-10-06T04:33:19.819Z,99.90
2022-10-06T04:34:21.406Z,99.90
2022-10-06T04:35:23.344Z,99.90
2022-10-06T04:36:31.276Z,99.90
2022-10-06T04:37:32.900Z,99.90
2022-10-06T04:38:35.889Z,99.90
2022-10-06T04:39:37.743Z,99.90
2022-10-06T04:40:39.316Z,99.90
2022-10-06T04:41:42.169Z,99.90
2022-10-06T04:42:45.295Z,99.90
2022-10-06T04:43:48.178Z,99.90
2022-10-06T04:44:49.788Z,99.90
2022-10-06T04:45:58.868Z,99.90
2022-10-06T04:47:01.230Z,99.90
2022-10-06T04:48:02.886Z,99.90
2022-10-06T04:49:04.524Z,99.90
2022-10-06T04:50:06.470Z,99.90
2022-10-06T04:51:14.704Z,99.90
2022-10-06T04:52:16.576Z,99.90
2022-10-06T04:53:18.168Z,99.90
2022-10-06T04:54:19.836Z,99.90
2022-10-06T04:55:21.422Z,99.90
2022-10-06T04:56:25.551Z,99.90
2022-10-06T04:57:27.907Z,99.90
2022-10-06T04:58:37.883Z,99.90
2022-10-06T05:00:00.473Z,99.90
2022-10-06T05:01:20.091Z,99.90
2022-10-06T05:02:22.287Z,99.90
2022-10-06T05:03:23.953Z,99.90
2022-10-06T05:04:25.544Z,99.90
2022-10-06T05:05:27.163Z,99.90
2022-10-06T05:06:31.245Z,99.90
2022-10-06T05:07:32.934Z,99.90
2022-10-06T05:08:35.278Z,99.90
2022-10-06T05:09:37.101Z,99.90
2022-10-06T05:10:38.711Z,99.90
2022-10-06T05:11:40.298Z,99.90
2022-10-06T05:12:41.916Z,99.90
2022-10-06T05:13:43.771Z,99.90
2022-10-06T05:14:46.945Z,99.90
2022-10-06T05:15:59.381Z,99.90
2022-10-06T05:17:01.106Z,99.90
2022-10-06T05:18:02.763Z,99.90
2022-10-06T05:19:04.366Z,99.90
2022-10-06T05:20:06.570Z,99.90
2022-10-06T05:21:12.008Z,99.90
2022-10-06T05:22:13.611Z,99.90
2022-10-06T05:23:15.203Z,99.90
2022-10-06T05:24:17.373Z,99.90
2022-10-06T05:25:18.980Z,99.90
2022-10-06T05:26:23.436Z,99.90
2022-10-06T05:27:25.120Z,99.90
2022-10-06T05:28:28.930Z,99.90
2022-10-06T05:29:30.901Z,99.90
2022-10-06T05:30:32.604Z,99.90
2022-10-06T05:31:38.906Z,99.90
2022-10-06T05:32:40.665Z,99.90
2022-10-06T05:33:42.622Z,99.90
2022-10-06T05:34:44.205Z,99.90
2022-10-06T05:35:57.444Z,99.90
2022-10-06T05:36:59.025Z,99.90
2022-10-06T05:38:00.606Z,99.90
2022-10-06T05:39:03.093Z,99.90
2022-10-06T05:40:05.112Z,99.90
2022-10-06T05:41:08.392Z,99.90
2022-10-06T05:42:10.023Z,99.90
2022-10-06T05:43:11.646Z,99.90
2022-10-06T05:44:13.443Z,99.90
2022-10-06T05:45:15.183Z,99.90
2022-10-06T05:46:25.135Z,99.90
2022-10-06T05:47:26.840Z,99.90
2022-10-06T05:48:29.823Z,99.90
2022-10-06T05:49:31.687Z,99.90
2022-10-06T05:50:33.283Z,99.90
2022-10-06T05:51:36.026Z,99.90
2022-10-06T05:52:38.474Z,99.90
2022-10-06T05:53:40.141Z,99.90
2022-10-06T05:54:41.908Z,99.90
2022-10-06T05:55:43.540Z,99.90
2022-10-06T05:56:45.157Z,99.90
2022-10-06T05:57:46.834Z,99.90
2022-10-06T05:58:50.846Z,99.90
2022-10-06T05:59:52.449Z,99.90
2022-10-06T06:00:54.045Z,99.90
2022-10-06T06:01:55.845Z,99.90
2022-10-06T06:02:57.564Z,99.90
2022-10-06T06:04:02.641Z,99.90
2022-10-06T06:05:04.758Z,99.90
2022-10-06T06:06:25.250Z,99.90
2022-10-06T06:07:26.861Z,99.90
2022-10-06T06:08:28.998Z,99.90
2022-10-06T06:09:30.752Z,99.90
2022-10-06T06:10:32.485Z,99.90
2022-10-06T06:11:35.735Z,99.90
2022-10-06T06:12:37.380Z,99.90
2022-10-06T06:13:39.015Z,99.90
2022-10-06T06:14:59.058Z,99.90
2022-10-06T06:16:01.724Z,99.90
2022-10-06T06:17:03.348Z,99.90
2022-10-06T06:18:06.049Z,99.90
2022-10-06T06:19:09.198Z,99.90
2022-10-06T06:20:10.855Z,99.90
2022-10-06T06:21:12.536Z,99.90
2022-10-06T06:22:14.188Z,99.90
2022-10-06T06:23:15.821Z,99.90
2022-10-06T06:24:17.739Z,99.90
2022-10-06T06:25:19.368Z,99.90
2022-10-06T06:26:24.089Z,99.90
2022-10-06T06:27:26.218Z,99.90
2022-10-06T06:28:30.141Z,99.90
2022-10-06T06:29:31.949Z,99.90
2022-10-06T06:30:33.752Z,99.90
2022-10-06T06:31:38.606Z,99.90
2022-10-06T06:32:40.285Z,99.90
2022-10-06T06:33:42.068Z,99.90
2022-10-06T06:34:43.686Z,99.90
2022-10-06T06:35:45.264Z,99.90
2022-10-06T06:36:53.486Z,99.90
2022-10-06T06:37:55.175Z,99.90
2022-10-06T06:38:58.246Z,99.90
2022-10-06T06:39:59.858Z,99.90
2022-10-06T06:41:01.430Z,99.90
2022-10-06T06:42:05.016Z,99.90
2022-10-06T06:43:06.597Z,99.90
2022-10-06T06:44:11.328Z,99.90
2022-10-06T06:45:14.066Z,99.90
2022-10-06T06:46:18.091Z,99.90
2022-10-06T06:47:23.163Z,99.90
2022-10-06T06:48:28.785Z,88.20
2022-10-06T06:49:30.897Z,27.90
2022-10-06T06:50:32.770Z,15.20
2022-10-06T06:51:40.359Z,5.00
2022-10-06T06:52:43.825Z,1.00
2022-10-06T06:53:45.416Z,1.00
2022-10-06T06:54:49.902Z,1.00
2022-10-06T06:55:51.757Z,1.00
2022-10-06T06:56:55.167Z,1.00
2022-10-06T06:57:56.795Z,1.00
2022-10-06T06:58:58.368Z,1.00
2022-10-06T07:00:05.158Z,1.00
2022-10-06T07:01:13.652Z,1.00
2022-10-06T07:02:15.547Z,1.00
2022-10-06T07:03:38.466Z,1.00
2022-10-06T07:04:43.719Z,1.00
2022-10-06T07:05:46.422Z,1.00
2022-10-06T07:06:58.372Z,1.00
2022-10-06T07:08:00.254Z,1.00
2022-10-06T07:09:01.874Z,1.00
2022-10-06T07:10:04.360Z,1.00
2022-10-06T07:11:17.261Z,1.00
2022-10-06T07:12:18.884Z,1.00
2022-10-06T07:13:20.462Z,1.00
2022-10-06T07:14:24.896Z,1.00
2022-10-06T07:15:45.111Z,1.00
2022-10-06T07:17:05.289Z,1.00
2022-10-06T07:18:28.540Z,1.00
2022-10-06T07:19:49.175Z,18.30
2022-10-06T07:21:09.722Z,29.00
2022-10-06T07:22:30.046Z,24.60
2022-10-06T07:23:50.635Z,42.50
2022-10-06T07:25:08.024Z,46.80
2022-10-06T07:26:09.674Z,33.30
2022-10-06T07:27:11.609Z,47.30
2022-10-06T07:28:13.294Z,50.40
2022-10-06T07:29:14.947Z,47.30
2022-10-06T07:30:25.657Z,49.00
2022-10-06T07:31:33.357Z,49.00
2022-10-06T07:32:35.128Z,44.90
2022-10-06T07:33:37.032Z,60.00
2022-10-06T07:34:39.572Z,61.70
2022-10-06T07:35:41.195Z,57.20
2022-10-06T07:36:46.339Z,52.10
2022-10-06T07:37:48.824Z,60.80
2022-10-06T07:38:50.411Z,64.60
2022-10-06T07:39:52.082Z,69.10
2022-10-06T07:41:14.888Z,74.00
2022-10-06T07:42:18.574Z,79.80
2022-10-06T07:43:20.156Z,49.20
2022-10-06T07:44:23.226Z,56.10
2022-10-06T07:45:38.323Z,65.90
2022-10-06T07:46:40.104Z,67.50
2022-10-06T07:47:41.730Z,70.50
2022-10-06T07:48:44.471Z,65.40
2022-10-06T07:49:47.366Z,77.60
2022-10-06T07:50:51.485Z,94.50
2022-10-06T07:51:53.580Z,73.00
2022-10-06T07:52:55.186Z,69.90
2022-10-06T07:53:56.817Z,72.30
2022-10-06T07:54:58.434Z,81.90
2022-10-06T07:56:05.252Z,72.10
2022-10-06T07:57:06.843Z,66.80
2022-10-06T07:58:16.644Z,75.80
2022-10-06T07:59:19.758Z,75.00
2022-10-06T08:00:22.487Z,42.90
2022-10-06T08:01:26.784Z,51.20
2022-10-06T08:02:31.471Z,41.10
2022-10-06T08:03:40.976Z,20.80
2022-10-06T08:04:42.561Z,33.60
2022-10-06T08:05:45.652Z,39.00
2022-10-06T08:06:49.353Z,15.60
2022-10-06T08:07:52.513Z,22.60
2022-10-06T08:08:55.015Z,14.90
2022-10-06T08:09:56.603Z,11.00
2022-10-06T08:11:01.484Z,12.60
2022-10-06T08:12:23.682Z,5.00
2022-10-06T08:13:26.004Z,1.10
2022-10-06T08:14:27.601Z,1.00
2022-10-06T08:15:29.179Z,1.00
2022-10-06T08:16:30.973Z,1.00
2022-10-06T08:17:34.086Z,1.00
2022-10-06T08:18:46.042Z,1.00
2022-10-06T08:19:48.376Z,1.00
2022-10-06T08:20:49.988Z,1.00
2022-10-06T08:21:52.111Z,1.00
2022-10-06T08:22:54.515Z,1.00
2022-10-06T08:23:58.037Z,1.00
2022-10-06T08:25:07.407Z,1.00
2022-10-06T08:26:11.004Z,1.00
2022-10-06T08:27:12.666Z,1.00
2022-10-06T08:28:14.314Z,1.00
2022-10-06T08:29:16.058Z,1.00
2022-10-06T08:30:17.800Z,1.00
2022-10-06T08:31:21.755Z,1.00
2022-10-06T08:32:24.308Z,1.00
2022-10-06T08:33:26.945Z,1.00
2022-10-06T08:34:28.671Z,1.00
2022-10-06T08:35:31.079Z,1.00
2022-10-06T08:36:32.901Z,1.00
2022-10-06T08:37:34.581Z,1.00
2022-10-06T08:38:37.735Z,1.00
2022-10-06T08:39:41.341Z,1.00
2022-10-06T08:40:44.237Z,1.00
2022-10-06T08:41:51.091Z,1.00
2022-10-06T08:42:56.608Z,1.00
2022-10-06T08:44:15.789Z,1.00
2022-10-06T08:45:38.607Z,1.00
2022-10-06T08:46:49.327Z,1.00
2022-10-06T08:48:04.165Z,1.00
2022-10-06T08:49:06.913Z,1.00
2022-10-06T08:50:12.827Z,1.00
2022-10-06T08:51:51.227Z,1.00
2022-10-06T08:53:15.454Z,1.00
2022-10-06T08:54:41.195Z,1.00
2022-10-06T08:55:55.688Z,1.00
2022-10-06T08:57:16.874Z,1.00
2022-10-06T08:58:45.330Z,1.00
2022-10-06T08:59:49.986Z,1.00
2022-10-06T09:00:56.822Z,1.00
2022-10-06T09:01:58.636Z,1.00
2022-10-06T09:03:02.189Z,1.00
2022-10-06T09:04:07.194Z,1.00
2022-10-06T09:05:12.735Z,1.00
2022-10-06T09:06:41.355Z,1.00
2022-10-06T09:08:03.907Z,1.00
2022-10-06T09:09:44.470Z,1.00
2022-10-06T09:11:10.508Z,1.00
2022-10-06T09:12:39.410Z,1.00
2022-10-06T09:13:58.107Z,1.00
2022-10-06T09:15:08.330Z,1.00
2022-10-06T09:16:16.104Z,1.00
2022-10-06T09:17:35.092Z,99.90
2022-10-06T09:19:03.481Z,1.00
2022-10-06T09:20:04.972Z,1.00
2022-10-06T09:21:13.406Z,1.00
2022-10-06T09:22:20.495Z,1.00
2022-10-06T09:23:42.086Z,99.90
2022-10-06T09:24:49.436Z,1.00
2022-10-06T09:25:51.472Z,1.00
2022-10-06T09:26:57.408Z,1.00
2022-10-06T09:28:01.436Z,99.90
2022-10-06T09:29:03.114Z,99.90
2022-10-06T09:30:06.190Z,1.00
2022-10-06T09:31:28.471Z,1.00
2022-10-06T09:32:31.259Z,1.00
2022-10-06T09:33:39.842Z,1.00
2022-10-06T09:34:55.225Z,1.00
2022-10-06T09:36:10.888Z,1.00
2022-10-06T09:37:13.691Z,1.00
2022-10-06T09:38:15.342Z,1.00
2022-10-06T09:39:26.224Z,1.00
2022-10-06T09:40:48.532Z,99.90
2022-10-06T09:41:50.382Z,99.90
2022-10-06T09:42:53.484Z,99.90
2022-10-06T09:44:04.888Z,99.90
2022-10-06T09:45:24.676Z,99.90
2022-10-06T09:46:35.431Z,99.90
2022-10-06T09:47:45.339Z,99.90
2022-10-06T09:48:47.270Z,99.90
2022-10-06T09:50:16.172Z,99.90
2022-10-06T09:51:18.571Z,99.90
2022-10-06T09:52:20.287Z,99.90
2022-10-06T09:53:21.928Z,99.90
2022-10-06T09:54:24.404Z,99.90
2022-10-06T09:55:30.212Z,99.90
2022-10-06T09:56:33.029Z,99.90
2022-10-06T09:57:35.613Z,99.90
2022-10-06T09:58:39.989Z,99.90
2022-10-06T09:59:44.557Z,99.90
2022-10-06T10:00:54.833Z,99.90
2022-10-06T10:01:59.867Z,99.90
2022-10-06T10:03:04.495Z,99.90
2022-10-06T10:04:20.610Z,99.90
2022-10-06T10:05:24.075Z,99.90
2022-10-06T10:06:31.218Z,99.90
2022-10-06T10:07:34.642Z,99.90
2022-10-06T10:08:37.512Z,99.90
2022-10-06T10:09:41.700Z,99.90
2022-10-06T10:10:43.416Z,99.90
2022-10-06T10:12:04.673Z,99.90
2022-10-06T10:13:24.609Z,99.90
2022-10-06T10:14:26.237Z,99.90
2022-10-06T10:15:28.007Z,99.90
2022-10-06T10:16:34.778Z,99.90
2022-10-06T10:17:50.132Z,1.00
2022-10-06T10:18:52.444Z,1.00
2022-10-06T10:19:54.901Z,1.00
2022-10-06T10:21:10.363Z,1.00
2022-10-06T10:22:30.917Z,1.00
2022-10-06T10:23:36.257Z,1.00
2022-10-06T10:25:20.012Z,1.00
2022-10-06T10:26:45.309Z,99.90
2022-10-06T10:28:10.978Z,81.20
2022-10-06T10:29:45.583Z,1.00
2022-10-06T10:31:04.436Z,99.90
2022-10-06T10:32:40.212Z,49.40
2022-10-06T10:34:23.213Z,1.00
2022-10-06T10:35:28.881Z,1.00
2022-10-06T10:36:43.485Z,1.00
2022-10-06T10:38:13.749Z,1.00
2022-10-06T10:39:30.191Z,1.00
2022-10-06T10:40:54.146Z,1.00
2022-10-06T10:41:59.061Z,1.00
2022-10-06T10:43:22.124Z,1.00
2022-10-06T10:44:32.223Z,99.90
2022-10-06T10:46:00.436Z,99.90
2022-10-06T10:47:36.601Z,99.90
2022-10-06T10:49:01.846Z,99.90
2022-10-06T10:50:08.713Z,99.90
2022-10-06T10:51:16.418Z,99.90
2022-10-06T10:52:22.983Z,99.90
2022-10-06T10:53:52.408Z,99.90
2022-10-06T10:55:04.700Z,99.90
2022-10-06T10:56:10.500Z,99.90
2022-10-06T10:57:30.134Z,99.90
2022-10-06T10:58:38.501Z,1.00
2022-10-06T11:00:03.979Z,1.00
2022-10-06T11:01:29.450Z,1.00
2022-10-06T11:02:31.462Z,1.00
2022-10-06T11:03:33.281Z,30.30
2022-10-06T11:04:40.681Z,1.00
2022-10-06T11:06:17.575Z,1.00
2022-10-06T11:07:26.347Z,1.00
2022-10-06T11:09:02.264Z,1.00
2022-10-06T11:10:25.074Z,1.00
2022-10-06T11:11:52.198Z,1.00
2022-10-06T11:13:32.957Z,1.00
2022-10-06T11:14:59.648Z,1.00
2022-10-06T11:16:38.836Z,1.00
2022-10-06T11:17:50.220Z,1.00
2022-10-06T11:19:23.010Z,1.00
2022-10-06T11:20:44.148Z,1.00
2022-10-06T11:22:01.194Z,1.00
2022-10-06T11:23:22.146Z,1.00
2022-10-06T11:24:47.880Z,1.00
2022-10-06T11:26:04.852Z,1.00
2022-10-06T11:27:18.067Z,1.00
2022-10-06T11:28:50.805Z,1.00
2022-10-06T11:30:26.091Z,1.00
2022-10-06T11:31:55.156Z,1.00
2022-10-06T11:33:14.148Z,1.00
2022-10-06T11:34:15.716Z,1.00
2022-10-06T11:35:26.922Z,1.00
2022-10-06T11:36:53.600Z,1.00
2022-10-06T11:38:00.852Z,1.00
2022-10-06T11:39:30.609Z,99.90
2022-10-06T11:40:53.937Z,99.90
2022-10-06T11:42:15.253Z,99.90
2022-10-06T11:43:43.362Z,99.90
2022-10-06T11:44:49.765Z,99.90
2022-10-06T11:45:59.993Z,99.90
2022-10-06T11:47:09.806Z,99.90
2022-10-06T11:48:25.031Z,99.90
2022-10-06T11:49:29.347Z,99.90
2022-10-06T11:50:40.209Z,99.90
2022-10-06T11:51:41.844Z,99.90
2022-10-06T11:52:45.437Z,99.90
2022-10-06T11:53:47.338Z,99.90
2022-10-06T11:54:53.565Z,99.90
2022-10-06T11:56:23.979Z,99.90
2022-10-06T11:57:30.549Z,99.90
2022-10-06T11:58:55.543Z,99.90
2022-10-06T12:00:17.373Z,99.90
2022-10-06T12:01:31.017Z,99.90
2022-10-06T12:02:32.665Z,99.90
2022-10-06T12:03:45.280Z,99.90
2022-10-06T12:06:46.869Z,99.90
2022-10-06T12:07:54.419Z,99.90
2022-10-06T12:08:56.061Z,99.90
2022-10-06T12:10:36.247Z,99.90
2022-10-06T12:11:39.793Z,99.90
2022-10-06T12:12:43.227Z,99.90
2022-10-06T12:14:44.505Z,99.90
2022-10-06T12:18:35.201Z,99.90
2022-10-06T12:19:49.844Z,99.90
2022-10-06T12:21:09.141Z,99.90
2022-10-06T12:22:22.930Z,99.90
2022-10-06T12:23:50.535Z,99.90
2022-10-06T12:25:03.352Z,99.90
2022-10-06T12:26:21.322Z,99.90
2022-10-06T12:27:29.754Z,99.90
2022-10-06T12:28:38.299Z,99.90
2022-10-06T12:29:52.259Z,99.90
2022-10-06T12:31:17.927Z,99.90
2022-10-06T12:32:35.017Z,99.90
2022-10-06T12:33:39.376Z,99.90
2022-10-06T12:34:51.782Z,99.90
2022-10-06T12:36:02.873Z,99.90
2022-10-06T12:37:40.130Z,99.90
2022-10-06T12:38:44.414Z,99.90
2022-10-06T12:39:46.016Z,99.90
2022-10-06T12:40:49.898Z,99.90
2022-10-06T12:42:01.691Z,99.90
2022-10-06T12:43:12.446Z,99.90
2022-10-06T12:44:36.578Z,99.90
2022-10-06T12:45:46.258Z,99.90
2022-10-06T12:46:49.801Z,99.90
2022-10-06T12:47:52.271Z,99.90
2022-10-06T12:49:03.632Z,99.90
2022-10-06T12:50:25.382Z,99.90
2022-10-06T12:51:40.576Z,99.90
2022-10-06T12:52:52.459Z,99.90
2022-10-06T12:54:12.070Z,99.90
2022-10-06T12:55:28.535Z,99.90
2022-10-06T12:56:36.187Z,99.90
2022-10-06T12:57:48.654Z,99.90
2022-10-06T12:58:50.249Z,99.90
2022-10-06T12:59:52.080Z,99.90
2022-10-06T13:00:54.246Z,99.90
2022-10-06T13:02:08.570Z,99.90
2022-10-06T13:03:24.044Z,99.90
2022-10-06T13:04:44.854Z,99.90
2022-10-06T13:05:52.643Z,99.90
2022-10-06T13:06:54.259Z,99.90
2022-10-06T13:08:03.606Z,99.90
2022-10-06T13:09:13.055Z,99.90
2022-10-06T13:10:14.673Z,99.90
2022-10-06T13:11:21.748Z,99.90
2022-10-06T13:12:37.913Z,99.90
2022-10-06T13:13:47.986Z,99.90
2022-10-06T13:15:10.107Z,99.90
2022-10-06T13:16:12.457Z,99.90
2022-10-06T13:17:14.350Z,99.90
2022-10-06T13:18:17.113Z,99.90
2022-10-06T13:19:26.759Z,99.90
2022-10-06T13:20:42.893Z,99.90
2022-10-06T13:21:45.082Z,99.90
2022-10-06T13:22:54.867Z,99.90
2022-10-06T13:23:56.879Z,99.90
2022-10-06T13:25:01.700Z,99.90
2022-10-06T13:26:19.440Z,99.90
2022-10-06T13:27:21.076Z,99.90
2022-10-06T13:28:28.708Z,99.90
2022-10-06T13:29:31.711Z,99.90
2022-10-06T13:30:38.357Z,99.90
2022-10-06T13:31:51.696Z,99.90
2022-10-06T13:32:55.613Z,99.90
2022-10-06T13:34:07.399Z,99.90
2022-10-06T13:35:12.403Z,99.90
2022-10-06T13:36:14.745Z,99.90
2022-10-06T13:37:16.628Z,99.90
2022-10-06T13:38:18.619Z,99.90
2022-10-06T13:39:26.891Z,99.90
2022-10-06T13:40:44.055Z,99.90
2022-10-06T13:41:50.818Z,99.90
2022-10-06T13:42:52.542Z,99.90
2022-10-06T13:44:04.785Z,99.90
2022-10-06T13:45:14.783Z,99.90
2022-10-06T13:46:19.755Z,99.90
2022-10-06T13:47:27.067Z,99.90
2022-10-06T13:48:30.095Z,99.90
2022-10-06T13:49:56.294Z,99.90
2022-10-06T13:52:08.765Z,99.90
2022-10-06T13:53:28.360Z,99.90
2022-10-06T13:54:44.739Z,99.90
2022-10-06T13:55:50.202Z,99.90
2022-10-06T13:56:53.176Z,99.90
2022-10-06T13:58:03.349Z,99.90
2022-10-06T13:59:25.050Z,99.90
2022-10-06T14:00:46.912Z,99.90
2022-10-06T14:01:48.650Z,99.90
2022-10-06T14:02:55.926Z,99.90
2022-10-06T14:04:14.836Z,99.90
2022-10-06T14:05:29.281Z,99.90
2022-10-06T14:06:30.906Z,99.90
2022-10-06T14:07:32.633Z,99.90
2022-10-06T14:08:34.820Z,99.90
2022-10-06T14:09:36.425Z,99.90
2022-10-06T14:10:40.854Z,99.90
2022-10-06T14:11:44.810Z,99.90
2022-10-06T14:12:48.977Z,99.90
2022-10-06T14:13:52.903Z,99.90
2022-10-06T14:14:54.564Z,99.90
2022-10-06T14:16:01.816Z,99.90
2022-10-06T14:17:03.996Z,99.90
2022-10-06T14:18:06.063Z,99.90
2022-10-06T14:19:32.069Z,99.90
2022-10-06T14:20:41.820Z,99.90
2022-10-06T14:21:45.677Z,99.90
2022-10-06T14:22:47.357Z,99.90
2022-10-06T14:23:54.014Z,99.90
2022-10-06T14:24:55.918Z,99.90
2022-10-06T14:25:57.648Z,99.90
2022-10-06T14:27:04.529Z,99.90
2022-10-06T14:28:06.675Z,99.90
2022-10-06T14:29:08.422Z,99.90
2022-10-06T14:30:11.569Z,99.90
2022-10-06T14:31:14.808Z,99.90
2022-10-06T14:32:18.356Z,99.90